Main page
METAR-TAF:

METAR-TAF

Airports :

Grenchen Airport

Grenchen, Switzerland

latitude: 47-10-53N, longitude: 007-24-59E, elevation: 430 m

Current weather observation

The report was made 40 minutes ago, at 08:20 UTC
Wind 3 kt from the Northeast
Temperature 7°C
Humidity 53%
Pressure 1016 hPa
Visibility 10 km or more
no clouds below 1500 m and no cumulonimbus

METAR: LSZG 030820Z 05003KT CAVOK 07/M02 Q1016 NOSIG

Time: 11:00 (09:00 UTC)

Forecast

The report was made 35 minutes ago, at 08:25 UTC
Forecast valid from 03 at 09 UTC to 03 at 18 UTC
Wind 3 kt from variable directions
Visibility 10 km or more
no clouds below 1500 m and no cumulonimbus
Becoming
from 03 at 10 UTC to 03 at 12 UTC
Visibility 10 km or more
Few clouds at a height of 4000 ft
Becoming
from 03 at 12 UTC to 03 at 15 UTC
Wind 10 kt from the North

TAF: LSZG 030825Z 0309/0318 VRB03KT CAVOK BECMG 0310/0312 9999 FEW040 BECMG 0312/0315 35010KT

Weather observations and forecasts of more than 4000 airports (METAR and TAF reports).

The available stations are represented by yellow and red dots on the map.

Hover mouse over dot to see the name of the station.

Then click to see weather observations and forecasts.

To change the map : click on the green buttons with a black cross to zoom in, on the green button with a dash to zoom out, or on the green arrows for adjacent maps.


METAR-TAF: